Terminal Aerodrome Forecast
Issued by NWS

Home | Current Version | Previous Version | Graphics & Text | Print | Product List | Glossary On
Versions: 1 2 3 4 5 6 7 8 9 10 11 12 13 14 15 16
000
FTUS43 KBIS 152335
TAFDIK
TAF
KDIK 152335Z 1600/1624 27013KT P6SM SKC
     FM160200 24008KT P6SM SKC
     FM160900 21010KT P6SM SKC WS020/26030KT
     FM161700 28017KT P6SM SKC=

USA.gov is the U.S. government's official web portal to all federal, state and local government web resources and services.